Bookmark and Share
Track history (hours):
 

Pacific Beryl

Last reported at 2014-Mar-05 22:33 UTC. Time now 2014-Apr-17 15:32 UTC.
Position N 26°21' E 056°01'.
Warning: this ship's position is 42 days out of date.

Length 182 m; draft 8.8 m.

Type: Tanker. MMSI: 566366000.

NotesDate/timePositionNaut miles runAvg speedWind from/ knotsBaromVisibWave heightAir tempDewpointWater temp
2014-Mar-05 22:33N 26°21' E 056°01'1411.8
2014-Mar-05 21:21N 26°16' E 055°47'1012.7
2014-Mar-05 20:33N 26°12' E 055°36'2913.2
2014-Mar-05 18:21N 26°07' E 055°04'1113.5
2014-Mar-05 17:31N 26°09' E 054°52'1313.2
2014-Mar-05 16:34N 26°10' E 054°38'1312.9
2014-Mar-05 15:32N 26°13' E 054°23'1313.0
2014-Mar-05 14:34N 26°17' E 054°10'1412.4
2014-Mar-05 13:24N 26°21' E 053°55'1112.5
2014-Mar-05 12:34N 26°24' E 053°43'1312.5
2014-Mar-05 11:33N 26°28' E 053°30'1312.7
2014-Mar-05 10:32N 26°34' E 053°17'1413.4
2014-Mar-05 09:31N 26°40' E 053°03'1513.2
2014-Mar-05 08:22N 26°47' E 052°48'1213.3
2014-Mar-05 07:27N 26°53' E 052°36'1513.2
2014-Mar-05 06:17N 27°00' E 052°21'2312.8
2014-Mar-05 04:27N 27°05' E 051°56'115 3.2
2014-Mar-03 17:04N 27°09' E 049°47'143 5.4
2014-Mar-02 14:29N 26°57' E 052°27'1512.9
2014-Mar-02 13:21N 26°50' E 052°41'10613.2
2014-Mar-02 05:20N 26°21' E 054°36'1012.7
2014-Mar-02 04:32N 26°20' E 054°47'1212.4
2014-Mar-02 03:33N 26°19' E 055°00'1212.0
2014-Mar-02 02:33N 26°19' E 055°14'1212.4
2014-Mar-02 01:33N 26°21' E 055°27'1312.5
2014-Mar-02 00:33N 26°25' E 055°41'1313.0
2014-Mar-01 23:33N 26°29' E 055°54'  

Dump ship's entire track history

sailing weather and tide predictions

Pacific Beryl — 9V9809 — position and weather